sensor_id;sensor_type;location;lat;lon;timestamp;temperature;humidity
31675;DHT22;18276;45.520;11.018;2022-09-20T00:03:51;15.20;49.90
31675;DHT22;18276;45.520;11.018;2022-09-20T00:06:24;15.20;49.70
31675;DHT22;18276;45.520;11.018;2022-09-20T00:08:52;15.20;49.50
31675;DHT22;18276;45.520;11.018;2022-09-20T00:11:22;15.20;49.50
31675;DHT22;18276;45.520;11.018;2022-09-20T00:13:51;15.20;49.70
31675;DHT22;18276;45.520;11.018;2022-09-20T00:16:22;15.20;49.80
31675;DHT22;18276;45.520;11.018;2022-09-20T00:18:51;15.20;49.80
31675;DHT22;18276;45.520;11.018;2022-09-20T00:21:20;15.20;49.70
31675;DHT22;18276;45.520;11.018;2022-09-20T00:23:47;15.10;49.80
31675;DHT22;18276;45.520;11.018;2022-09-20T00:26:14;15.10;49.90
31675;DHT22;18276;45.520;11.018;2022-09-20T00:28:43;15.00;49.80
31675;DHT22;18276;45.520;11.018;2022-09-20T00:31:10;15.00;49.90
31675;DHT22;18276;45.520;11.018;2022-09-20T00:33:37;15.00;50.00
31675;DHT22;18276;45.520;11.018;2022-09-20T00:36:23;15.00;50.10
31675;DHT22;18276;45.520;11.018;2022-09-20T00:38:55;14.90;50.40
31675;DHT22;18276;45.520;11.018;2022-09-20T00:41:22;14.90;50.30
31675;DHT22;18276;45.520;11.018;2022-09-20T00:43:50;14.90;50.40
31675;DHT22;18276;45.520;11.018;2022-09-20T00:46:25;14.80;50.10
31675;DHT22;18276;45.520;11.018;2022-09-20T00:49:21;14.90;50.00
31675;DHT22;18276;45.520;11.018;2022-09-20T00:51:55;14.90;50.00
31675;DHT22;18276;45.520;11.018;2022-09-20T00:54:24;14.80;49.90
31675;DHT22;18276;45.520;11.018;2022-09-20T00:56:51;14.80;49.90
31675;DHT22;18276;45.520;11.018;2022-09-20T00:59:25;14.80;49.80
31675;DHT22;18276;45.520;11.018;2022-09-20T01:02:02;14.80;49.70
31675;DHT22;18276;45.520;11.018;2022-09-20T01:04:33;14.80;49.60
31675;DHT22;18276;45.520;11.018;2022-09-20T01:07:02;14.80;49.50
31675;DHT22;18276;45.520;11.018;2022-09-20T01:09:30;14.80;49.50
31675;DHT22;18276;45.520;11.018;2022-09-20T01:12:02;14.90;49.70
31675;DHT22;18276;45.520;11.018;2022-09-20T01:14:31;14.90;50.10
31675;DHT22;18276;45.520;11.018;2022-09-20T01:17:02;14.80;50.10
31675;DHT22;18276;45.520;11.018;2022-09-20T01:28:00;14.60;50.70
31675;DHT22;18276;45.520;11.018;2022-09-20T01:30:37;14.60;50.60
31675;DHT22;18276;45.520;11.018;2022-09-20T01:33:27;14.60;50.70
31675;DHT22;18276;45.520;11.018;2022-09-20T01:35:58;14.60;50.60
31675;DHT22;18276;45.520;11.018;2022-09-20T01:41:23;14.50;50.70
31675;DHT22;18276;45.520;11.018;2022-09-20T01:44:01;14.50;50.60
31675;DHT22;18276;45.520;11.018;2022-09-20T01:46:33;14.60;50.40
31675;DHT22;18276;45.520;11.018;2022-09-20T02:13:03;14.50;50.30
31675;DHT22;18276;45.520;11.018;2022-09-20T02:15:35;14.40;50.20
31675;DHT22;18276;45.520;11.018;2022-09-20T02:18:29;14.50;50.10
31675;DHT22;18276;45.520;11.018;2022-09-20T02:27:30;14.50;49.90
31675;DHT22;18276;45.520;11.018;2022-09-20T02:30:18;14.50;49.60
31675;DHT22;18276;45.520;11.018;2022-09-20T02:39:03;14.60;49.20
31675;DHT22;18276;45.520;11.018;2022-09-20T02:50:04;14.60;48.80
31675;DHT22;18276;45.520;11.018;2022-09-20T02:52:59;14.60;49.00
31675;DHT22;18276;45.520;11.018;2022-09-20T02:58:55;14.60;49.30
31675;DHT22;18276;45.520;11.018;2022-09-20T03:03:42;14.60;49.20
31675;DHT22;18276;45.520;11.018;2022-09-20T03:14:58;14.50;49.10
31675;DHT22;18276;45.520;11.018;2022-09-20T03:17:51;14.50;49.20
31675;DHT22;18276;45.520;11.018;2022-09-20T03:26:26;14.40;49.30
31675;DHT22;18276;45.520;11.018;2022-09-20T03:43:57;14.20;49.30
31675;DHT22;18276;45.520;11.018;2022-09-20T03:46:28;14.20;49.00
31675;DHT22;18276;45.520;11.018;2022-09-20T03:51:28;14.20;48.80
31675;DHT22;18276;45.520;11.018;2022-09-20T04:05:46;14.20;49.10
31675;DHT22;18276;45.520;11.018;2022-09-20T04:13:57;14.20;49.50
31675;DHT22;18276;45.520;11.018;2022-09-20T04:16:41;14.20;49.80
31675;DHT22;18276;45.520;11.018;2022-09-20T04:19:13;14.10;49.70
31675;DHT22;18276;45.520;11.018;2022-09-20T04:22:03;14.10;49.80
31675;DHT22;18276;45.520;11.018;2022-09-20T04:27:28;14.10;50.20
31675;DHT22;18276;45.520;11.018;2022-09-20T04:30:19;14.10;50.10
31675;DHT22;18276;45.520;11.018;2022-09-20T05:00:20;14.00;51.10
31675;DHT22;18276;45.520;11.018;2022-09-20T05:03:10;13.90;51.20
31675;DHT22;18276;45.520;11.018;2022-09-20T05:05:53;14.00;51.30
31675;DHT22;18276;45.520;11.018;2022-09-20T05:16:19;14.00;51.70
31675;DHT22;18276;45.520;11.018;2022-09-20T05:30:15;14.20;51.80
31675;DHT22;18276;45.520;11.018;2022-09-20T05:35:53;14.20;51.60
31675;DHT22;18276;45.520;11.018;2022-09-20T05:44:07;14.30;51.40
31675;DHT22;18276;45.520;11.018;2022-09-20T05:59:04;17.00;48.60
31675;DHT22;18276;45.520;11.018;2022-09-20T06:07:36;21.10;41.80
31675;DHT22;18276;45.520;11.018;2022-09-20T06:15:58;23.60;36.10
31675;DHT22;18276;45.520;11.018;2022-09-20T06:23:34;24.90;33.60
31675;DHT22;18276;45.520;11.018;2022-09-20T06:26:07;24.80;33.50
31675;DHT22;18276;45.520;11.018;2022-09-20T06:28:41;24.60;33.60
31675;DHT22;18276;45.520;11.018;2022-09-20T06:31:11;24.50;34.00
31675;DHT22;18276;45.520;11.018;2022-09-20T06:33:58;24.50;34.40
31675;DHT22;18276;45.520;11.018;2022-09-20T06:36:37;24.60;33.90
31675;DHT22;18276;45.520;11.018;2022-09-20T06:39:56;24.70;33.80
31675;DHT22;18276;45.520;11.018;2022-09-20T06:42:43;24.80;33.70
31675;DHT22;18276;45.520;11.018;2022-09-20T06:45:10;24.50;34.20
31675;DHT22;18276;45.520;11.018;2022-09-20T06:47:37;24.40;34.50
31675;DHT22;18276;45.520;11.018;2022-09-20T06:50:05;24.60;34.60
31675;DHT22;18276;45.520;11.018;2022-09-20T06:52:33;24.90;34.00
31675;DHT22;18276;45.520;11.018;2022-09-20T06:55:02;25.40;33.60
31675;DHT22;18276;45.520;11.018;2022-09-20T06:57:36;26.00;33.10
31675;DHT22;18276;45.520;11.018;2022-09-20T07:00:07;26.90;32.20
31675;DHT22;18276;45.520;11.018;2022-09-20T07:02:38;28.00;31.00
31675;DHT22;18276;45.520;11.018;2022-09-20T07:05:05;28.80;29.80
31675;DHT22;18276;45.520;11.018;2022-09-20T07:07:33;29.60;29.00
31675;DHT22;18276;45.520;11.018;2022-09-20T07:10:00;30.40;28.60
31675;DHT22;18276;45.520;11.018;2022-09-20T07:12:28;30.90;27.60
31675;DHT22;18276;45.520;11.018;2022-09-20T07:14:59;31.70;26.90
31675;DHT22;18276;45.520;11.018;2022-09-20T07:17:26;32.40;26.30
31675;DHT22;18276;45.520;11.018;2022-09-20T07:19:53;32.90;25.80
31675;DHT22;18276;45.520;11.018;2022-09-20T07:22:22;33.40;25.40
31675;DHT22;18276;45.520;11.018;2022-09-20T07:24:49;33.90;25.10
31675;DHT22;18276;45.520;11.018;2022-09-20T07:27:16;34.30;24.50
31675;DHT22;18276;45.520;11.018;2022-09-20T07:29:43;34.60;24.40
31675;DHT22;18276;45.520;11.018;2022-09-20T07:32:11;35.00;24.10
31675;DHT22;18276;45.520;11.018;2022-09-20T07:34:39;35.50;23.80
31675;DHT22;18276;45.520;11.018;2022-09-20T07:37:06;35.90;23.30
31675;DHT22;18276;45.520;11.018;2022-09-20T07:39:33;36.20;23.00
31675;DHT22;18276;45.520;11.018;2022-09-20T07:42:00;36.30;22.90
31675;DHT22;18276;45.520;11.018;2022-09-20T07:44:31;36.50;22.80
31675;DHT22;18276;45.520;11.018;2022-09-20T07:46:59;36.20;22.60
31675;DHT22;18276;45.520;11.018;2022-09-20T07:49:27;35.90;22.90
31675;DHT22;18276;45.520;11.018;2022-09-20T07:51:57;35.70;23.00
31675;DHT22;18276;45.520;11.018;2022-09-20T07:54:24;35.60;23.30
31675;DHT22;18276;45.520;11.018;2022-09-20T07:56:53;35.60;23.30
31675;DHT22;18276;45.520;11.018;2022-09-20T07:59:20;35.50;23.50
31675;DHT22;18276;45.520;11.018;2022-09-20T08:01:47;35.70;23.70
31675;DHT22;18276;45.520;11.018;2022-09-20T08:04:14;35.80;23.40
31675;DHT22;18276;45.520;11.018;2022-09-20T08:06:43;35.90;23.70
31675;DHT22;18276;45.520;11.018;2022-09-20T08:09:11;36.10;23.80
31675;DHT22;18276;45.520;11.018;2022-09-20T08:11:40;36.30;23.80
31675;DHT22;18276;45.520;11.018;2022-09-20T08:14:11;36.10;23.70
31675;DHT22;18276;45.520;11.018;2022-09-20T08:16:41;36.20;23.70
31675;DHT22;18276;45.520;11.018;2022-09-20T08:19:12;36.40;23.70
31675;DHT22;18276;45.520;11.018;2022-09-20T08:21:39;36.60;23.60
31675;DHT22;18276;45.520;11.018;2022-09-20T08:24:06;36.70;23.40
31675;DHT22;18276;45.520;11.018;2022-09-20T08:26:33;36.80;23.50
31675;DHT22;18276;45.520;11.018;2022-09-20T08:29:02;37.10;23.80
31675;DHT22;18276;45.520;11.018;2022-09-20T08:31:33;37.30;23.30
31675;DHT22;18276;45.520;11.018;2022-09-20T08:34:03;37.60;23.40
31675;DHT22;18276;45.520;11.018;2022-09-20T08:36:33;37.90;23.00
31675;DHT22;18276;45.520;11.018;2022-09-20T08:39:03;37.50;22.70
31675;DHT22;18276;45.520;11.018;2022-09-20T08:45:02;37.80;23.00
31675;DHT22;18276;45.520;11.018;2022-09-20T08:47:32;38.20;22.50
31675;DHT22;18276;45.520;11.018;2022-09-20T08:50:05;37.60;22.50
31675;DHT22;18276;45.520;11.018;2022-09-20T08:52:38;37.40;22.80
31675;DHT22;18276;45.520;11.018;2022-09-20T08:55:25;37.90;22.30
31675;DHT22;18276;45.520;11.018;2022-09-20T08:57:55;38.50;23.00
31675;DHT22;18276;45.520;11.018;2022-09-20T09:00:25;39.10;21.90
31675;DHT22;18276;45.520;11.018;2022-09-20T09:02:57;39.40;21.30
31675;DHT22;18276;45.520;11.018;2022-09-20T09:05:34;39.70;21.30
31675;DHT22;18276;45.520;11.018;2022-09-20T09:08:20;40.30;20.90
31675;DHT22;18276;45.520;11.018;2022-09-20T09:11:05;40.80;20.50
31675;DHT22;18276;45.520;11.018;2022-09-20T09:16:14;40.20;20.80
31675;DHT22;18276;45.520;11.018;2022-09-20T09:18:48;39.40;20.90
31675;DHT22;18276;45.520;11.018;2022-09-20T09:21:26;39.30;21.10
31675;DHT22;18276;45.520;11.018;2022-09-20T09:24:05;40.00;21.00
31675;DHT22;18276;45.520;11.018;2022-09-20T09:26:39;40.40;19.70
31675;DHT22;18276;45.520;11.018;2022-09-20T09:29:18;39.90;19.90
31675;DHT22;18276;45.520;11.018;2022-09-20T09:31:48;39.80;20.30
31675;DHT22;18276;45.520;11.018;2022-09-20T09:34:28;39.70;20.40
31675;DHT22;18276;45.520;11.018;2022-09-20T09:36:57;39.30;20.80
31675;DHT22;18276;45.520;11.018;2022-09-20T09:39:27;39.10;20.70
31675;DHT22;18276;45.520;11.018;2022-09-20T09:41:55;38.80;20.90
31675;DHT22;18276;45.520;11.018;2022-09-20T09:44:29;38.60;20.30
31675;DHT22;18276;45.520;11.018;2022-09-20T09:46:59;38.30;20.40
31675;DHT22;18276;45.520;11.018;2022-09-20T09:49:30;38.40;20.80
31675;DHT22;18276;45.520;11.018;2022-09-20T09:52:15;38.60;20.90
31675;DHT22;18276;45.520;11.018;2022-09-20T09:54:47;39.10;20.80
31675;DHT22;18276;45.520;11.018;2022-09-20T10:00:17;38.50;20.90
31675;DHT22;18276;45.520;11.018;2022-09-20T10:03:08;37.70;21.20
31675;DHT22;18276;45.520;11.018;2022-09-20T10:06:32;37.10;21.30
31675;DHT22;18276;45.520;11.018;2022-09-20T10:09:03;36.90;21.50
31675;DHT22;18276;45.520;11.018;2022-09-20T10:14:44;37.30;21.70
31675;DHT22;18276;45.520;11.018;2022-09-20T10:17:33;36.80;21.90
31675;DHT22;18276;45.520;11.018;2022-09-20T10:28:57;36.30;21.60
31675;DHT22;18276;45.520;11.018;2022-09-20T10:36:51;35.90;22.50
31675;DHT22;18276;45.520;11.018;2022-09-20T10:39:47;35.40;23.30
31675;DHT22;18276;45.520;11.018;2022-09-20T10:42:24;34.60;23.20
31675;DHT22;18276;45.520;11.018;2022-09-20T10:45:35;34.40;23.70
31675;DHT22;18276;45.520;11.018;2022-09-20T10:48:32;35.00;22.80
31675;DHT22;18276;45.520;11.018;2022-09-20T10:56:46;31.40;25.70
31675;DHT22;18276;45.520;11.018;2022-09-20T10:59:32;30.20;26.50
31675;DHT22;18276;45.520;11.018;2022-09-20T11:02:11;29.70;27.30
31675;DHT22;18276;45.520;11.018;2022-09-20T11:18:36;28.10;29.40
31675;DHT22;18276;45.520;11.018;2022-09-20T11:21:12;28.20;28.40
31675;DHT22;18276;45.520;11.018;2022-09-20T11:24:06;28.10;28.70
31675;DHT22;18276;45.520;11.018;2022-09-20T11:26:42;27.70;29.60
31675;DHT22;18276;45.520;11.018;2022-09-20T11:32:46;27.10;30.50
31675;DHT22;18276;45.520;11.018;2022-09-20T11:38:09;26.60;30.80
31675;DHT22;18276;45.520;11.018;2022-09-20T11:40:45;26.40;31.20
31675;DHT22;18276;45.520;11.018;2022-09-20T11:43:15;26.40;31.30
31675;DHT22;18276;45.520;11.018;2022-09-20T11:45:53;26.50;31.50
31675;DHT22;18276;45.520;11.018;2022-09-20T11:48:31;26.50;32.30
31675;DHT22;18276;45.520;11.018;2022-09-20T11:56:54;26.80;32.00
31675;DHT22;18276;45.520;11.018;2022-09-20T11:59:33;26.80;32.80
31675;DHT22;18276;45.520;11.018;2022-09-20T12:02:04;26.80;33.00
31675;DHT22;18276;45.520;11.018;2022-09-20T12:04:42;26.70;32.70
31675;DHT22;18276;45.520;11.018;2022-09-20T12:07:23;26.60;33.10
31675;DHT22;18276;45.520;11.018;2022-09-20T12:10:00;26.60;33.50
31675;DHT22;18276;45.520;11.018;2022-09-20T12:12:30;26.50;33.50
31675;DHT22;18276;45.520;11.018;2022-09-20T12:15:00;26.40;33.70
31675;DHT22;18276;45.520;11.018;2022-09-20T12:26:09;26.10;35.20
31675;DHT22;18276;45.520;11.018;2022-09-20T12:28:44;26.10;35.90
31675;DHT22;18276;45.520;11.018;2022-09-20T12:44:43;24.80;37.60
31675;DHT22;18276;45.520;11.018;2022-09-20T12:55:36;25.40;36.20
31675;DHT22;18276;45.520;11.018;2022-09-20T13:00:45;25.50;35.90
31675;DHT22;18276;45.520;11.018;2022-09-20T13:14:30;25.40;35.00
31675;DHT22;18276;45.520;11.018;2022-09-20T13:17:21;25.10;35.90
31675;DHT22;18276;45.520;11.018;2022-09-20T13:19:50;25.00;37.40
31675;DHT22;18276;45.520;11.018;2022-09-20T13:22:47;24.90;38.00
31675;DHT22;18276;45.520;11.018;2022-09-20T13:25:16;24.90;37.50
31675;DHT22;18276;45.520;11.018;2022-09-20T13:27:50;24.90;37.10
31675;DHT22;18276;45.520;11.018;2022-09-20T13:30:27;25.20;37.00
31675;DHT22;18276;45.520;11.018;2022-09-20T13:33:21;25.40;36.30
31675;DHT22;18276;45.520;11.018;2022-09-20T13:35:54;25.60;36.00
31675;DHT22;18276;45.520;11.018;2022-09-20T13:38:26;25.80;35.80
31675;DHT22;18276;45.520;11.018;2022-09-20T13:41:07;26.10;35.60
31675;DHT22;18276;45.520;11.018;2022-09-20T13:43:39;26.40;35.20
31675;DHT22;18276;45.520;11.018;2022-09-20T13:46:11;26.50;35.00
31675;DHT22;18276;45.520;11.018;2022-09-20T13:48:38;26.50;35.10
31675;DHT22;18276;45.520;11.018;2022-09-20T13:51:23;26.30;35.40
31675;DHT22;18276;45.520;11.018;2022-09-20T13:53:51;26.10;35.70
31675;DHT22;18276;45.520;11.018;2022-09-20T13:56:22;26.10;35.80
31675;DHT22;18276;45.520;11.018;2022-09-20T13:58:51;25.90;35.70
31675;DHT22;18276;45.520;11.018;2022-09-20T14:01:28;25.70;36.10
31675;DHT22;18276;45.520;11.018;2022-09-20T14:04:04;25.70;36.20
31675;DHT22;18276;45.520;11.018;2022-09-20T14:06:33;25.70;36.40
31675;DHT22;18276;45.520;11.018;2022-09-20T14:09:04;25.70;36.30
31675;DHT22;18276;45.520;11.018;2022-09-20T14:11:36;25.90;36.50
31675;DHT22;18276;45.520;11.018;2022-09-20T14:14:05;25.70;37.00
31675;DHT22;18276;45.520;11.018;2022-09-20T14:16:37;25.50;37.30
31675;DHT22;18276;45.520;11.018;2022-09-20T14:19:07;25.60;37.70
31675;DHT22;18276;45.520;11.018;2022-09-20T14:21:35;25.40;37.90
31675;DHT22;18276;45.520;11.018;2022-09-20T14:29:40;25.30;38.20
31675;DHT22;18276;45.520;11.018;2022-09-20T14:39:56;25.10;39.70
31675;DHT22;18276;45.520;11.018;2022-09-20T14:42:46;24.80;40.20
31675;DHT22;18276;45.520;11.018;2022-09-20T14:45:32;24.60;40.70
31675;DHT22;18276;45.520;11.018;2022-09-20T14:50:42;24.00;42.00
31675;DHT22;18276;45.520;11.018;2022-09-20T14:55:38;23.70;42.60
31675;DHT22;18276;45.520;11.018;2022-09-20T14:58:09;23.60;43.00
31675;DHT22;18276;45.520;11.018;2022-09-20T15:01:00;23.50;43.20
31675;DHT22;18276;45.520;11.018;2022-09-20T15:03:37;23.50;43.70
31675;DHT22;18276;45.520;11.018;2022-09-20T15:06:10;23.40;44.10
31675;DHT22;18276;45.520;11.018;2022-09-20T15:08:37;23.40;44.50
31675;DHT22;18276;45.520;11.018;2022-09-20T15:11:17;23.40;44.80
31675;DHT22;18276;45.520;11.018;2022-09-20T15:13:44;23.40;45.10
31675;DHT22;18276;45.520;11.018;2022-09-20T15:16:19;23.30;44.70
31675;DHT22;18276;45.520;11.018;2022-09-20T15:18:46;23.30;44.90
31675;DHT22;18276;45.520;11.018;2022-09-20T15:21:13;23.30;45.10
31675;DHT22;18276;45.520;11.018;2022-09-20T15:23:40;23.30;45.90
31675;DHT22;18276;45.520;11.018;2022-09-20T15:26:09;23.60;46.70
31675;DHT22;18276;45.520;11.018;2022-09-20T15:28:37;24.20;46.70
31675;DHT22;18276;45.520;11.018;2022-09-20T15:31:04;24.80;46.40
31675;DHT22;18276;45.520;11.018;2022-09-20T15:33:31;25.30;45.40
31675;DHT22;18276;45.520;11.018;2022-09-20T15:36:00;25.80;45.20
31675;DHT22;18276;45.520;11.018;2022-09-20T15:38:28;26.30;44.70
31675;DHT22;18276;45.520;11.018;2022-09-20T15:40:55;26.60;43.70
31675;DHT22;18276;45.520;11.018;2022-09-20T15:43:22;26.80;42.80
31675;DHT22;18276;45.520;11.018;2022-09-20T15:45:56;26.90;42.20
31675;DHT22;18276;45.520;11.018;2022-09-20T15:48:28;26.90;42.00
31675;DHT22;18276;45.520;11.018;2022-09-20T15:51:06;26.60;42.30
31675;DHT22;18276;45.520;11.018;2022-09-20T15:53:36;26.40;42.00
31675;DHT22;18276;45.520;11.018;2022-09-20T15:56:26;26.00;41.80
31675;DHT22;18276;45.520;11.018;2022-09-20T15:58:59;25.60;43.00
31675;DHT22;18276;45.520;11.018;2022-09-20T16:01:30;25.10;43.70
31675;DHT22;18276;45.520;11.018;2022-09-20T16:03:58;24.70;44.50
31675;DHT22;18276;45.520;11.018;2022-09-20T16:06:25;24.40;44.90
31675;DHT22;18276;45.520;11.018;2022-09-20T16:08:54;24.10;46.00
31675;DHT22;18276;45.520;11.018;2022-09-20T16:11:21;23.80;46.60
31675;DHT22;18276;45.520;11.018;2022-09-20T16:13:54;23.50;46.80
31675;DHT22;18276;45.520;11.018;2022-09-20T16:16:21;23.30;47.80
31675;DHT22;18276;45.520;11.018;2022-09-20T16:18:48;23.00;48.20
31675;DHT22;18276;45.520;11.018;2022-09-20T16:21:35;22.90;48.40
31675;DHT22;18276;45.520;11.018;2022-09-20T16:24:02;22.70;48.50
31675;DHT22;18276;45.520;11.018;2022-09-20T16:26:30;22.50;49.30
31675;DHT22;18276;45.520;11.018;2022-09-20T16:28:59;22.40;49.50
31675;DHT22;18276;45.520;11.018;2022-09-20T16:33:54;22.10;50.60
31675;DHT22;18276;45.520;11.018;2022-09-20T16:36:22;22.10;51.20
31675;DHT22;18276;45.520;11.018;2022-09-20T16:38:53;21.90;51.50
31675;DHT22;18276;45.520;11.018;2022-09-20T16:41:25;21.80;52.00
31675;DHT22;18276;45.520;11.018;2022-09-20T16:43:54;21.70;52.60
31675;DHT22;18276;45.520;11.018;2022-09-20T16:46:23;21.50;53.00
31675;DHT22;18276;45.520;11.018;2022-09-20T16:48:54;21.40;53.40
31675;DHT22;18276;45.520;11.018;2022-09-20T16:51:23;21.30;54.50
31675;DHT22;18276;45.520;11.018;2022-09-20T16:53:51;21.20;54.40
31675;DHT22;18276;45.520;11.018;2022-09-20T16:56:26;21.10;54.60
31675;DHT22;18276;45.520;11.018;2022-09-20T16:58:55;21.00;54.90
31675;DHT22;18276;45.520;11.018;2022-09-20T17:01:22;20.90;54.80
31675;DHT22;18276;45.520;11.018;2022-09-20T17:03:49;20.80;55.00
31675;DHT22;18276;45.520;11.018;2022-09-20T17:06:17;20.60;55.40
31675;DHT22;18276;45.520;11.018;2022-09-20T17:08:45;20.50;55.90
31675;DHT22;18276;45.520;11.018;2022-09-20T17:11:18;20.40;56.30
31675;DHT22;18276;45.520;11.018;2022-09-20T17:13:50;20.30;56.70
31675;DHT22;18276;45.520;11.018;2022-09-20T17:16:23;20.30;56.70
31675;DHT22;18276;45.520;11.018;2022-09-20T17:18:58;20.20;56.80
31675;DHT22;18276;45.520;11.018;2022-09-20T17:21:27;20.10;56.80
31675;DHT22;18276;45.520;11.018;2022-09-20T17:23:56;20.10;57.00
31675;DHT22;18276;45.520;11.018;2022-09-20T17:26:26;20.00;57.00
31675;DHT22;18276;45.520;11.018;2022-09-20T17:28:54;19.90;57.20
31675;DHT22;18276;45.520;11.018;2022-09-20T17:31:27;19.80;57.30
31675;DHT22;18276;45.520;11.018;2022-09-20T17:33:56;19.80;57.50
31675;DHT22;18276;45.520;11.018;2022-09-20T17:36:28;19.60;57.10
31675;DHT22;18276;45.520;11.018;2022-09-20T17:38:58;19.50;57.50
31675;DHT22;18276;45.520;11.018;2022-09-20T17:41:30;19.40;58.00
31675;DHT22;18276;45.520;11.018;2022-09-20T17:43:59;19.30;58.20
31675;DHT22;18276;45.520;11.018;2022-09-20T17:46:29;19.30;58.50
31675;DHT22;18276;45.520;11.018;2022-09-20T17:49:00;19.20;58.60
31675;DHT22;18276;45.520;11.018;2022-09-20T17:51:33;19.10;58.80
31675;DHT22;18276;45.520;11.018;2022-09-20T17:54:01;19.10;59.20
31675;DHT22;18276;45.520;11.018;2022-09-20T17:56:28;19.00;59.30
31675;DHT22;18276;45.520;11.018;2022-09-20T17:58:57;18.90;59.40
31675;DHT22;18276;45.520;11.018;2022-09-20T18:01:26;18.90;59.50
31675;DHT22;18276;45.520;11.018;2022-09-20T18:03:56;18.80;59.60
31675;DHT22;18276;45.520;11.018;2022-09-20T18:06:26;18.80;59.70
31675;DHT22;18276;45.520;11.018;2022-09-20T18:08:58;18.80;59.90
31675;DHT22;18276;45.520;11.018;2022-09-20T18:11:34;18.70;59.90
31675;DHT22;18276;45.520;11.018;2022-09-20T18:14:05;18.60;60.10
31675;DHT22;18276;45.520;11.018;2022-09-20T18:16:33;18.60;60.10
31675;DHT22;18276;45.520;11.018;2022-09-20T18:19:01;18.50;60.10
31675;DHT22;18276;45.520;11.018;2022-09-20T18:21:29;18.50;60.30
31675;DHT22;18276;45.520;11.018;2022-09-20T18:23:56;18.40;60.50
31675;DHT22;18276;45.520;11.018;2022-09-20T18:26:27;18.40;60.70
31675;DHT22;18276;45.520;11.018;2022-09-20T18:29:04;18.30;61.00
31675;DHT22;18276;45.520;11.018;2022-09-20T18:31:36;18.30;61.20
31675;DHT22;18276;45.520;11.018;2022-09-20T18:34:06;18.30;61.30
31675;DHT22;18276;45.520;11.018;2022-09-20T18:36:35;18.20;61.40
31675;DHT22;18276;45.520;11.018;2022-09-20T18:39:05;18.20;61.60
31675;DHT22;18276;45.520;11.018;2022-09-20T18:41:36;18.10;61.70
31675;DHT22;18276;45.520;11.018;2022-09-20T18:44:06;18.10;61.90
31675;DHT22;18276;45.520;11.018;2022-09-20T18:46:35;18.00;61.80
31675;DHT22;18276;45.520;11.018;2022-09-20T18:49:07;18.00;62.00
31675;DHT22;18276;45.520;11.018;2022-09-20T18:51:35;17.90;62.20
31675;DHT22;18276;45.520;11.018;2022-09-20T18:54:06;17.90;62.50
31675;DHT22;18276;45.520;11.018;2022-09-20T18:56:46;17.80;62.70
31675;DHT22;18276;45.520;11.018;2022-09-20T18:59:16;17.80;63.00
31675;DHT22;18276;45.520;11.018;2022-09-20T19:01:54;17.80;62.90
31675;DHT22;18276;45.520;11.018;2022-09-20T19:07:40;17.70;63.10
31675;DHT22;18276;45.520;11.018;2022-09-20T19:13:04;17.60;63.30
31675;DHT22;18276;45.520;11.018;2022-09-20T19:26:19;17.40;63.70
31675;DHT22;18276;45.520;11.018;2022-09-20T19:28:49;17.30;63.80
31675;DHT22;18276;45.520;11.018;2022-09-20T19:31:25;17.40;63.90
31675;DHT22;18276;45.520;11.018;2022-09-20T19:33:55;17.30;64.20
31675;DHT22;18276;45.520;11.018;2022-09-20T19:48:03;17.10;64.60
31675;DHT22;18276;45.520;11.018;2022-09-20T19:50:40;17.10;64.90
31675;DHT22;18276;45.520;11.018;2022-09-20T19:53:13;17.00;65.20
31675;DHT22;18276;45.520;11.018;2022-09-20T19:55:45;17.00;65.20
31675;DHT22;18276;45.520;11.018;2022-09-20T19:58:14;17.00;65.40
31675;DHT22;18276;45.520;11.018;2022-09-20T20:00:45;16.90;66.20
31675;DHT22;18276;45.520;11.018;2022-09-20T20:03:13;16.90;66.40
31675;DHT22;18276;45.520;11.018;2022-09-20T20:05:47;16.90;65.60
31675;DHT22;18276;45.520;11.018;2022-09-20T20:08:21;16.90;65.80
31675;DHT22;18276;45.520;11.018;2022-09-20T20:13:45;16.90;65.90
31675;DHT22;18276;45.520;11.018;2022-09-20T20:24:52;16.70;66.20
31675;DHT22;18276;45.520;11.018;2022-09-20T20:27:19;16.70;66.30
31675;DHT22;18276;45.520;11.018;2022-09-20T20:29:46;16.60;66.40
31675;DHT22;18276;45.520;11.018;2022-09-20T20:32:14;16.60;66.40
31675;DHT22;18276;45.520;11.018;2022-09-20T20:34:41;16.60;66.50
31675;DHT22;18276;45.520;11.018;2022-09-20T20:37:08;16.60;66.50
31675;DHT22;18276;45.520;11.018;2022-09-20T20:39:35;16.60;66.60
31675;DHT22;18276;45.520;11.018;2022-09-20T20:42:03;16.60;66.60
31675;DHT22;18276;45.520;11.018;2022-09-20T20:44:33;16.50;66.70
31675;DHT22;18276;45.520;11.018;2022-09-20T20:47:04;16.50;66.80
31675;DHT22;18276;45.520;11.018;2022-09-20T20:49:31;16.50;67.00
31675;DHT22;18276;45.520;11.018;2022-09-20T20:51:58;16.50;67.10
31675;DHT22;18276;45.520;11.018;2022-09-20T20:54:31;16.40;67.20
31675;DHT22;18276;45.520;11.018;2022-09-20T20:56:58;16.40;67.30
31675;DHT22;18276;45.520;11.018;2022-09-20T20:59:25;16.40;67.50
31675;DHT22;18276;45.520;11.018;2022-09-20T21:01:52;16.40;67.60
31675;DHT22;18276;45.520;11.018;2022-09-20T21:04:19;16.40;67.70
31675;DHT22;18276;45.520;11.018;2022-09-20T21:06:47;16.40;67.80
31675;DHT22;18276;45.520;11.018;2022-09-20T21:09:16;16.30;67.70
31675;DHT22;18276;45.520;11.018;2022-09-20T21:11:43;16.30;67.80
31675;DHT22;18276;45.520;11.018;2022-09-20T21:14:11;16.30;67.90
31675;DHT22;18276;45.520;11.018;2022-09-20T21:16:41;16.30;67.90
31675;DHT22;18276;45.520;11.018;2022-09-20T21:19:10;16.30;68.00
31675;DHT22;18276;45.520;11.018;2022-09-20T21:21:42;16.30;68.20
31675;DHT22;18276;45.520;11.018;2022-09-20T21:24:12;16.20;68.40
31675;DHT22;18276;45.520;11.018;2022-09-20T21:26:40;16.20;68.60
31675;DHT22;18276;45.520;11.018;2022-09-20T21:29:12;16.20;68.90
31675;DHT22;18276;45.520;11.018;2022-09-20T21:31:41;16.20;69.10
31675;DHT22;18276;45.520;11.018;2022-09-20T21:34:11;16.10;69.10
31675;DHT22;18276;45.520;11.018;2022-09-20T21:36:38;16.10;69.20
31675;DHT22;18276;45.520;11.018;2022-09-20T21:39:07;16.10;69.40
31675;DHT22;18276;45.520;11.018;2022-09-20T21:41:36;16.10;69.40
31675;DHT22;18276;45.520;11.018;2022-09-20T21:44:04;16.10;69.50
31675;DHT22;18276;45.520;11.018;2022-09-20T21:46:36;16.10;69.60
31675;DHT22;18276;45.520;11.018;2022-09-20T21:49:08;16.10;69.70
31675;DHT22;18276;45.520;11.018;2022-09-20T21:51:37;16.10;69.70
31675;DHT22;18276;45.520;11.018;2022-09-20T21:54:04;16.10;69.70